12N

Aeroflex-Andover Airport

Andover, New Jersey, USA
METAR K12N 202054Z AUTO 33008G21KT M07/M12 A2952 RMK AO1 PK WND 02026/1956 SLP010 T10721117 53055
Observed Flight Rules
Jan-20 @ 20:54 UTC (25 minutes ago)
Wind
330° at 8 knots
 Gusting to 21 knots
Temperatures Readings
Current -7°C / 19°F
Dewpoint -12°C / 10°F
Humidity 68%
Altimeter 29.52" Hg
Pressure 1001 hPa
Elevation 177
METAR K12N 202054Z AUTO 33008G21KT M07/M12 A2952 RMK AO1 PK WND 02026/1956 SLP010 T10721117 53055
Observed Flight Rules
Jan-20 @ 20:54 UTC
(25 minutes ago)
Wind
330° at 8 knots
 Gusting to 21 knots
Temperature Dewpoint
-7°C / 19°F -12°C / 10°F
Humidity Altimeter Pressure
68% 29.52" Hg 1001 hPa